Flight Track Log - Related Links

Times and Time Zones

All times are in EDT time to prevent confusion due to time zone crossing. See the JIA2355 flight status page for this flight to view local times or setup timezone preferences in your user account.

Time Position Orientation Groundspeed Altitude Reporting Facility
EDT Latitude Longitude Course Direction KTS MPH feet Rate Location/Type
Sat 11:49:17 AM 35.2289 -80.9572 52° Northeast 170 196 1,400  Level Atlanta Center
Sat 11:50:12 AM 35.2692 -80.9836 332° Northwest 200 230 2,900 1,810 Climbing Atlanta Center
Sat 11:51:00 AM 35.0981 -81.1590 287° West  Level FlightAware Approximate
Sat 11:51:13 AM 35.3303 -81.0017 346° North 256 295 4,900  Level Atlanta Center
Sat 11:52:00 AM 35.1579 -81.2167 North  Level FlightAware Approximate
Sat 11:52:15 AM 35.4133 -80.9858 North 292 336 7,600  Level Atlanta Center
Sat 11:53:00 AM 35.2545 -81.2167 North  Level FlightAware Approximate
Sat 11:53:31 AM 35.5083 -80.9542 15° North 297 342 10,400  Level Atlanta Center
Sat 11:54:00 AM 35.3081 -81.1278 52° Northeast  Level FlightAware Approximate
Sat 11:54:31 AM 35.5911 -80.9256 16° North 297 342 12,500  Level Atlanta Center
Sat 11:55:31 AM 35.6781 -80.8967 15° North 308 354 14,300 1,700 Climbing Atlanta Center
Sat 11:56:31 AM 35.7714 -80.8803 North 324 373 15,900 1,550 Climbing Atlanta Center
Sat 11:57:31 AM 35.8672 -80.8689 North 339 390 17,400 1,050 Climbing Atlanta Center
Sat 11:58:31 AM 35.9692 -80.8572 North 356 410 18,000 200 Climbing Atlanta Center
Sat 11:59:31 AM 36.0544 -80.9336 324° Northwest 362 417 17,800 -750 Descending Atlanta Center
Sat 12:00:31 PM 36.0908 -81.0503 291° West 340 391 16,500 -1,250 Descending Atlanta Center
Sat 12:01:31 PM 36.1203 -81.1547 289° West 323 372 15,300 -1,200 Descending Atlanta Center
Sat 12:02:31 PM 36.1500 -81.2617 289° West 323 372 14,100 -650 Descending Atlanta Center
Sat 12:03:31 PM 36.1792 -81.3583 291° West 333 383 14,000 -50 Descending Atlanta Center
Sat 12:04:31 PM 36.2108 -81.4681 290° West 338 389 14,000  Level Atlanta Center
Sat 12:05:31 PM 36.2422 -81.5778 290° West 343 395 14,000 -450 Level Atlanta Center
Sat 12:06:31 PM 36.2733 -81.6847 290° West 343 395 13,100 -1,250 Descending Atlanta Center
Sat 12:07:31 PM 36.3025 -81.7897 289° West 338 389 11,500 -1,050 Descending Atlanta Center
Sat 12:08:31 PM 36.3314 -81.8867 290° West 317 365 11,000 -600 Descending Atlanta Center
Sat 12:09:31 PM 36.3561 -81.9867 287° West 305 351 10,300 -1,100 Descending Atlanta Center
Sat 12:10:31 PM 36.3828 -82.0839 289° West 305 351 8,800 -1,550 Descending Atlanta Center
Sat 12:11:31 PM 36.3883 -82.1819 274° West 294 338 7,200 -1,550 Descending Atlanta Center
Sat 12:12:31 PM 36.3878 -82.2825 270° West 288 331 5,700 -1,500 Descending Atlanta Center

Login

Don't have an account? Register now (free) for customized features, flight alerts, and more!